Accueil
METAR-TAF:

METAR-TAF

Aéroports :

Weeze, Allemagne

Aéroport de Weeze

latitude: 51-36-09N, longitude: 006-08-32E, altitude: 32 m

Observation

Le bulletin a été fait il y a 20 minutes, à 04:50 UTC
Vent 6 kt de sud-est
Température -2°C
Humidité 93%
Pression 1026 hPa
Visibilité 10 km ou plus
pas de nuages en-dessous de 1500 mètres et pas de cumulonimbus.

METAR: EDLV 180450Z 13006KT CAVOK M02/M03 Q1026

Heure: 06:10 (05:10 UTC)

Prévision

Le bulletin a été fait il y a 20 minutes, à 04:50 UTC
Prévision valable du 18 à 05 UTC au 18 à 24 UTC
Vent 6 kt de sud/sud-est
Visibilité 10 km ou plus
pas de nuages en-dessous de 1500 mètres et pas de cumulonimbus.
Evoluant progressivement
du 18 à 15 UTC au 18 à 18 UTC
Vent 3 kt de direction variable

TAF: EDLV 180450Z 1805/1824 15006KT CAVOK BECMG 1815/1818 VRB03KT

Observations et prévisions météorologiques de plus de 4000 aéroports (messages METAR et TAF).

Les stations disponibles sont représentées par des disques jaunes et rouges sur la carte.

Passer la souris dessus pour voir le nom de la station.

Cliquer dessus pour voir les observations et prévisions météorologiques.

Pour changer de carte: cliquez sur les boutons verts avec une croix noire pour zoomer, sur le bouton vert avec un tiret pour effectuer un zoom arrière, ou sur les flèches vertes pour les cartes adjacentes.


METAR-TAF: